Time;durP1;ratioP1;P1;durP2;ratioP2;P2;SDS_P1;SDS_P2;PMS_P1;PMS_P2;Temp;Humidity;BMP_temperature;BMP_pressure;BME280_temperature;BME280_humidity;BME280_pressure;Samples;Min_cycle;Max_cycle;Signal;HPM_P1;HPM_P2
2022/07/14 00:02:33;;;;;;;5.67;3.75;;;;;;;20.63;57.00;100139.39;2063363;86;29812;-61
2022/07/14 00:05:45;;;;;;;7.53;3.55;;;;;;;20.63;57.08;100137.19;2063084;86;27961;-61
2022/07/14 00:08:53;;;;;;;7.30;3.98;;;;;;;20.63;57.13;100133.10;2063685;86;29218;-60
2022/07/14 00:11:57;;;;;;;5.25;3.30;;;;;;;20.62;57.21;100147.20;2028158;87;31039;-60
2022/07/14 00:15:03;;;;;;;8.15;3.40;;;;;;;20.60;57.04;100137.47;2062592;86;32979;-61
2022/07/14 00:18:10;;;;;;;6.87;2.83;;;;;;;20.57;57.10;100137.75;2063322;85;29338;-59
2022/07/14 00:21:18;;;;;;;5.17;3.20;;;;;;;20.53;56.94;100138.55;2063603;86;27985;-61
2022/07/14 00:24:25;;;;;;;15.13;4.15;;;;;;;20.52;56.87;100144.16;2064081;86;28607;-61
2022/07/14 00:27:33;;;;;;;6.87;3.83;;;;;;;20.51;57.05;100142.44;2063559;85;31469;-60
2022/07/14 00:30:45;;;;;;;6.05;3.22;;;;;;;20.47;56.90;100142.72;2063530;85;33017;-60
2022/07/14 00:33:54;;;;;;;5.42;2.87;;;;;;;20.45;56.84;100142.48;2063621;86;29769;-60
2022/07/14 00:37:04;;;;;;;5.33;3.35;;;;;;;20.41;57.01;100146.00;2063596;86;27955;-61
2022/07/14 00:40:14;;;;;;;7.15;3.08;;;;;;;20.38;57.03;100144.93;2063041;86;28924;-64
2022/07/14 00:43:22;;;;;;;6.83;3.47;;;;;;;20.36;56.81;100137.92;2063131;86;31032;-60
2022/07/14 00:46:31;;;;;;;5.72;2.95;;;;;;;20.33;56.93;100127.69;2063623;85;32955;-60
2022/07/14 00:49:38;;;;;;;5.12;2.52;;;;;;;20.34;56.31;100129.92;2063380;85;29795;-61
2022/07/14 00:52:43;;;;;;;;;;;;;;;20.34;56.32;100133.48;2066225;85;27731;-61
2022/07/14 00:55:53;;;;;;;3.17;2.30;;;;;;;20.36;55.65;100131.13;2063871;85;28653;-61
2022/07/14 00:59:07;;;;;;;6.50;2.20;;;;;;;20.37;56.17;100132.84;2063366;85;32265;-62
2022/07/14 01:02:15;;;;;;;3.15;2.20;;;;;;;20.37;55.60;100137.77;2063484;86;29920;-60
2022/07/14 01:05:20;;;;;;;;;;;;;;;20.38;55.88;100134.56;2066587;86;29509;-61
2022/07/14 01:08:29;;;;;;;4.15;2.10;;;;;;;20.37;55.23;100131.48;2063714;86;28058;-61
2022/07/14 01:11:36;;;;;;;4.42;1.80;;;;;;;20.36;55.35;100137.92;2064038;86;28653;-60
2022/07/14 01:14:42;;;;;;;5.20;2.17;;;;;;;20.38;55.01;100141.37;2063610;85;31462;-60
2022/07/14 01:17:48;;;;;;;5.50;2.80;;;;;;;20.37;55.28;100137.77;2064206;86;32972;-61
2022/07/14 01:20:58;;;;;;;2.85;2.05;;;;;;;20.38;55.35;100134.56;2063783;86;29459;-61
2022/07/14 01:24:06;;;;;;;3.10;1.98;;;;;;;20.37;55.19;100137.77;2063963;86;27981;-60
2022/07/14 01:27:11;;;;;;;2.17;1.98;;;;;;;20.36;55.12;100139.28;2064199;86;28650;-60
2022/07/14 01:30:20;;;;;;;6.25;2.70;;;;;;;20.32;55.34;100140.92;2063989;85;31008;-60
2022/07/14 01:33:31;;;;;;;6.72;2.60;;;;;;;20.28;54.87;100138.13;2063747;86;33089;-60
2022/07/14 01:36:39;;;;;;;4.55;2.60;;;;;;;20.23;55.18;100144.52;2063457;86;29783;-61
2022/07/14 01:39:46;;;;;;;4.30;2.52;;;;;;;20.17;54.62;100143.72;2063687;86;27435;-60
2022/07/14 01:42:57;;;;;;;5.42;2.58;;;;;;;20.12;55.27;100155.03;2063285;86;28042;-60
2022/07/14 01:46:05;;;;;;;5.80;2.60;;;;;;;20.06;55.05;100152.87;2064017;85;30994;-60
2022/07/14 01:49:16;;;;;;;5.70;2.83;;;;;;;19.98;55.07;100144.06;2063665;85;33026;-60
2022/07/14 01:52:27;;;;;;;4.65;1.90;;;;;;;19.89;55.39;100141.69;2063324;85;27977;-60
2022/07/14 01:55:36;;;;;;;4.42;2.33;;;;;;;19.82;55.45;100145.08;2063234;85;27906;-60
2022/07/14 01:58:49;;;;;;;3.87;2.33;;;;;;;19.72;55.36;100151.36;2063567;86;29970;-61
2022/07/14 02:02:00;;;;;;;2.98;2.00;;;;;;;19.64;55.43;100155.26;2063685;86;31747;-61
2022/07/14 02:05:11;;;;;;;3.98;2.27;;;;;;;19.53;55.78;100168.45;2063448;86;34178;-60
2022/07/14 02:08:15;;;;;;;5.97;2.27;;;;;;;19.43;55.97;100171.16;2063672;86;29324;-69
2022/07/14 02:14:49;;;;;;;4.72;3.35;;;;;;;19.27;55.79;100175.73;2062923;86;27924;-63
2022/07/14 02:17:59;;;;;;;10.00;2.40;;;;;;;19.22;55.83;100177.13;2062838;86;32061;-63
2022/07/14 02:21:11;;;;;;;4.00;2.52;;;;;;;19.18;55.80;100178.39;2062646;85;33564;-62
2022/07/14 02:24:20;;;;;;;4.80;2.60;;;;;;;19.14;55.82;100177.81;2062481;85;29401;-62
2022/07/14 02:27:27;;;;;;;9.43;3.75;;;;;;;19.09;55.87;100171.91;2062695;86;27933;-62
2022/07/14 02:30:34;;;;;;;5.85;2.77;;;;;;;19.05;56.04;100174.05;2062375;85;28694;-62
2022/07/14 02:33:41;;;;;;;6.78;3.08;;;;;;;18.98;56.01;100176.44;2064056;86;31030;-62
2022/07/14 02:36:47;;;;;;;5.10;3.65;;;;;;;18.94;56.10;100179.53;2063183;85;33449;-62
2022/07/14 02:40:01;;;;;;;7.78;2.72;;;;;;;18.89;56.26;100188.56;2022856;87;27900;-62
2022/07/14 02:43:12;;;;;;;4.08;3.10;;;;;;;18.83;56.23;100193.52;2038334;87;27748;-62
2022/07/14 02:46:20;;;;;;;3.98;2.60;;;;;;;18.78;56.38;100197.12;2016745;87;28748;-61
2022/07/14 02:49:26;;;;;;;6.40;2.85;;;;;;;18.71;56.46;100191.87;2039813;87;31043;-62
2022/07/14 02:52:31;;;;;;;3.77;2.65;;;;;;;18.66;56.79;100192.75;2039721;87;32988;-61
2022/07/14 02:55:41;;;;;;;3.83;2.80;;;;;;;18.59;56.69;100184.79;2054974;86;29346;-62
2022/07/14 02:58:49;;;;;;;4.92;2.65;;;;;;;18.54;56.96;100186.52;2054309;86;27769;-61
2022/07/14 03:01:57;;;;;;;5.60;3.50;;;;;;;18.49;56.96;100181.48;2053019;86;28003;-60
2022/07/14 03:05:07;;;;;;;4.12;2.80;;;;;;;18.46;57.18;100176.31;2055048;86;31130;-63
2022/07/14 03:08:19;;;;;;;10.05;3.30;;;;;;;18.41;57.20;100173.16;2054764;86;33051;-61
2022/07/14 03:11:32;;;;;;;5.37;3.30;;;;;;;18.40;57.39;100182.77;2054881;86;29430;-60
2022/07/14 03:14:37;;;;;;;7.15;3.33;;;;;;;18.37;57.58;100184.73;2055166;86;27824;-60
2022/07/14 03:17:45;;;;;;;7.53;3.40;;;;;;;18.36;57.86;100199.80;2054282;86;28672;-61
2022/07/14 03:20:54;;;;;;;3.30;2.67;;;;;;;18.36;57.96;100204.75;2054423;86;31038;-61
2022/07/14 03:24:03;;;;;;;3.65;2.67;;;;;;;18.36;58.06;100212.00;2054443;86;33077;-61
2022/07/14 03:27:09;;;;;;;5.70;2.80;;;;;;;18.35;58.07;100212.52;2054568;86;29350;-61
2022/07/14 03:30:13;;;;;;;4.05;2.83;;;;;;;18.35;58.08;100209.80;2054982;86;27891;-62
2022/07/14 03:33:18;;;;;;;4.33;3.05;;;;;;;18.36;58.31;100214.23;2054869;86;28806;-67
2022/07/14 03:36:25;;;;;;;4.78;3.45;;;;;;;18.43;58.75;100227.27;2033916;86;31034;-66
2022/07/14 03:39:30;;;;;;;8.40;3.17;;;;;;;18.49;58.88;100226.25;2050617;86;33023;-67
2022/07/14 03:42:40;;;;;;;4.47;2.72;;;;;;;18.58;58.95;100227.32;2050709;86;29434;-68
2022/07/14 03:45:52;;;;;;;3.47;2.80;;;;;;;18.67;59.27;100229.27;2048951;86;28059;-61
2022/07/14 03:49:03;;;;;;;5.87;2.95;;;;;;;18.76;59.46;100238.48;2049354;86;28006;-68
2022/07/14 03:52:15;;;;;;;7.00;2.77;;;;;;;18.85;59.52;100242.74;2050025;86;30961;-70
2022/07/14 03:55:22;;;;;;;4.53;3.20;;;;;;;18.93;59.51;100252.46;2050250;86;29425;-65
2022/07/14 03:58:30;;;;;;;3.87;2.65;;;;;;;19.05;59.49;100266.84;2050735;86;29487;-69
2022/07/14 04:01:37;;;;;;;4.37;2.77;;;;;;;19.19;59.27;100280.59;2049957;86;27973;-67
2022/07/14 04:04:43;;;;;;;6.33;3.40;;;;;;;19.35;59.27;100296.44;2050323;86;28680;-61
2022/07/14 04:07:48;;;;;;;3.47;2.87;;;;;;;19.46;59.07;100303.62;2025632;86;31036;-62
2022/07/14 04:10:54;;;;;;;5.53;3.37;;;;;;;19.55;59.08;100308.28;2050210;86;33098;-61
2022/07/14 04:14:05;;;;;;;3.83;2.80;;;;;;;19.63;58.77;100307.60;2050500;86;29420;-62
2022/07/14 04:17:15;;;;;;;3.90;3.05;;;;;;;19.68;58.82;100306.70;2050469;86;27890;-69
2022/07/14 04:20:27;;;;;;;6.03;2.75;;;;;;;19.75;58.50;100311.95;2050162;86;28069;-62
2022/07/14 04:23:32;;;;;;;4.40;2.85;;;;;;;19.85;58.40;100310.64;2050498;86;31047;-68
2022/07/14 04:26:40;;;;;;;4.20;2.72;;;;;;;19.98;58.42;100318.60;2050399;86;33981;-62
2022/07/14 04:29:50;;;;;;;5.22;3.05;;;;;;;20.06;58.14;100317.40;2050427;86;29362;-61
2022/07/14 04:32:54;;;;;;;3.80;3.00;;;;;;;20.10;58.03;100313.93;2050423;86;27957;-61
2022/07/14 04:36:01;;;;;;;5.40;2.50;;;;;;;20.16;57.96;100311.52;2050636;86;28661;-60
2022/07/14 04:39:06;;;;;;;4.30;2.85;;;;;;;20.24;57.94;100306.73;2049695;86;31188;-61
2022/07/14 04:42:16;;;;;;;6.35;2.60;;;;;;;20.36;57.83;100305.25;2050104;86;33000;-61
2022/07/14 04:45:27;;;;;;;4.60;3.12;;;;;;;20.49;57.86;100314.02;2050294;86;29395;-61
2022/07/14 04:52:03;;;;;;;5.45;2.87;;;;;;;21.07;57.65;100317.82;1987013;88;29161;-62
2022/07/14 04:55:12;;;;;;;4.33;3.10;;;;;;;21.88;57.27;100315.14;1987161;89;32363;-61
2022/07/14 04:58:18;;;;;;;4.30;2.92;;;;;;;22.77;56.29;100303.24;1988013;89;32970;-61
2022/07/14 05:01:39;;;;;;;3.52;3.22;;;;;;;23.36;55.41;100302.23;1988625;89;29415;-65
2022/07/14 05:04:48;;;;;;;3.77;2.50;;;;;;;23.58;54.64;100308.17;1967283;89;28083;-61
2022/07/14 05:07:52;;;;;;;3.95;2.70;;;;;;;23.99;54.11;100307.60;1988403;89;28664;-61
2022/07/14 05:10:59;;;;;;;;;;;;;;;24.19;53.42;100315.03;1990833;89;31087;-61
2022/07/14 05:14:04;;;;;;;4.92;2.60;;;;;;;24.40;52.85;100315.95;1988591;89;32974;-60
2022/07/14 05:17:12;;;;;;;;;;;;;;;24.43;52.36;100311.52;1991105;89;29348;-60
2022/07/14 05:20:19;;;;;;;6.12;2.72;;;;;;;24.57;52.08;100317.37;1988526;89;27999;-61
2022/07/14 05:23:30;;;;;;;3.95;3.00;;;;;;;24.70;51.83;100323.25;1988696;89;28650;-60
2022/07/14 05:26:34;;;;;;;6.60;3.62;;;;;;;24.72;51.10;100327.20;1967712;89;31123;-60
2022/07/14 05:29:45;;;;;;;4.58;2.85;;;;;;;24.65;51.19;100330.22;2030665;86;33022;-60
2022/07/14 05:32:51;;;;;;;3.72;2.83;;;;;;;24.53;50.92;100331.05;2050467;86;29566;-60
2022/07/14 05:35:56;;;;;;;5.37;2.97;;;;;;;24.41;50.84;100327.75;2050617;86;28030;-61
2022/07/14 05:39:01;;;;;;;5.08;2.75;;;;;;;24.42;50.83;100323.99;2050407;86;28673;-61
2022/07/14 05:42:07;;;;;;;3.85;3.42;;;;;;;24.56;50.78;100327.98;2050566;86;31102;-61
2022/07/14 05:45:28;;;;;;;4.35;2.70;;;;;;;24.70;50.49;100329.25;2050541;86;32997;-61
2022/07/14 05:48:37;;;;;;;3.95;2.37;;;;;;;24.84;50.57;100319.00;2050290;86;29406;-61
2022/07/14 05:51:42;;;;;;;4.20;3.00;;;;;;;25.02;50.00;100333.06;2050696;86;27937;-61
2022/07/14 05:54:51;;;;;;;6.08;3.15;;;;;;;25.29;49.57;100342.84;2050565;86;28664;-61
2022/07/14 05:57:59;;;;;;;7.33;3.22;;;;;;;25.57;49.51;100338.87;2050672;86;31037;-61
2022/07/14 06:01:05;;;;;;;3.72;3.00;;;;;;;25.62;49.30;100342.84;2050592;86;32990;-61
2022/07/14 06:04:10;;;;;;;4.50;3.30;;;;;;;25.65;48.93;100343.53;2050344;86;29546;-62
2022/07/14 06:07:15;;;;;;;4.55;3.02;;;;;;;25.86;48.71;100335.57;2051758;86;27927;-62
2022/07/14 06:10:20;;;;;;;4.40;3.05;;;;;;;26.18;48.44;100337.89;2050039;86;28660;-62
2022/07/14 06:13:39;;;;;;;4.25;2.62;;;;;;;26.70;47.89;100338.32;2050579;86;32111;-62
2022/07/14 06:16:51;;;;;;;7.10;2.80;;;;;;;27.13;47.55;100341.50;2050673;86;33600;-62
2022/07/14 06:20:07;;;;;;;5.08;3.08;;;;;;;27.63;46.84;100337.47;2050113;86;27982;-63
2022/07/14 06:23:12;;;;;;;3.20;2.85;;;;;;;27.91;46.21;100334.93;2050568;86;27943;-62
2022/07/14 06:26:23;;;;;;;3.50;3.20;;;;;;;28.12;45.83;100330.06;2050716;86;28652;-62
2022/07/14 06:29:32;;;;;;;4.65;2.80;;;;;;;28.26;45.28;100335.23;2050212;86;32339;-62
2022/07/14 06:32:43;;;;;;;2.85;2.60;;;;;;;28.22;44.93;100332.52;2047604;86;33976;-62
2022/07/14 06:35:54;;;;;;;4.42;2.52;;;;;;;28.15;44.55;100335.19;2050173;86;28002;-62
2022/07/14 06:39:05;;;;;;;2.90;2.30;;;;;;;27.99;44.15;100332.60;2050539;86;27976;-63
2022/07/14 06:42:14;;;;;;;7.10;2.65;;;;;;;27.83;43.95;100326.24;2050239;86;29172;-62
2022/07/14 06:45:18;;;;;;;3.70;2.58;;;;;;;27.74;43.70;100330.11;2050566;86;30596;-62
2022/07/14 06:48:23;;;;;;;3.02;2.25;;;;;;;27.64;43.46;100329.00;2050632;86;32979;-63
2022/07/14 06:51:26;;;;;;;4.60;2.33;;;;;;;27.60;43.53;100330.45;2053466;86;29356;-65
2022/07/14 06:54:35;;;;;;;3.70;2.22;;;;;;;27.95;43.62;100328.01;2050426;86;28004;-63
2022/07/14 06:57:41;;;;;;;5.67;2.27;;;;;;;28.19;43.18;100333.77;2050645;86;28762;-63
2022/07/14 07:00:47;;;;;;;9.80;2.37;;;;;;;28.60;42.30;100334.25;2050617;86;31094;-63
2022/07/14 07:03:49;;;;;;;5.12;2.55;;;;;;;29.05;42.20;100336.88;2053459;86;33156;-63
2022/07/14 07:06:54;;;;;;;2.58;1.85;;;;;;;29.69;41.33;100334.59;2053557;86;29405;-62
2022/07/14 07:10:07;;;;;;;3.92;2.02;;;;;;;30.12;40.79;100321.69;2050436;86;28041;-61
2022/07/14 07:13:15;;;;;;;2.37;1.82;;;;;;;30.54;40.21;100317.50;2050847;86;28674;-61
2022/07/14 07:16:27;;;;;;;5.97;2.02;;;;;;;31.25;39.48;100316.72;2050711;86;31073;-62
2022/07/14 07:19:36;;;;;;;2.22;1.70;;;;;;;31.81;38.40;100313.50;2050434;86;33401;-61
2022/07/14 07:22:41;;;;;;;7.10;1.87;;;;;;;32.34;36.97;100319.11;2050625;86;29397;-62
2022/07/14 07:25:53;;;;;;;2.37;2.12;;;;;;;32.53;35.33;100320.94;2050960;86;27973;-62
2022/07/14 07:29:01;;;;;;;2.00;1.90;;;;;;;32.65;36.26;100316.06;2050817;86;28646;-62
2022/07/14 07:32:14;;;;;;;4.05;2.35;;;;;;;32.45;35.60;100310.64;2050474;86;31260;-61
2022/07/14 07:35:22;;;;;;;9.48;2.52;;;;;;;32.17;35.32;100305.71;2050466;86;33050;-62
2022/07/14 07:38:33;;;;;;;2.80;2.22;;;;;;;32.12;35.40;100299.96;2050666;86;29340;-62
2022/07/14 07:41:46;;;;;;;2.70;2.25;;;;;;;32.33;35.30;100300.77;2054445;86;28028;-62
2022/07/14 07:44:50;;;;;;;2.40;2.20;;;;;;;32.53;33.80;100293.20;2054978;86;28645;-61
2022/07/14 07:47:54;;;;;;;13.65;3.30;;;;;;;32.40;34.53;100292.73;2055030;86;31031;-62
2022/07/14 07:50:58;;;;;;;5.60;2.60;;;;;;;32.70;35.19;100296.28;2054913;86;32983;-62
2022/07/14 07:54:03;;;;;;;3.17;2.87;;;;;;;32.96;34.67;100300.00;2054883;86;29349;-62
2022/07/14 07:57:11;;;;;;;5.53;3.02;;;;;;;32.82;34.40;100302.56;2054975;86;27967;-62
2022/07/14 08:00:17;;;;;;;3.75;3.15;;;;;;;32.65;34.13;100307.74;2054841;86;28802;-62
2022/07/14 08:03:25;;;;;;;4.30;3.08;;;;;;;32.60;34.38;100311.74;2054622;86;31200;-62
2022/07/14 08:06:37;;;;;;;7.15;3.25;;;;;;;32.50;34.28;100308.06;2054280;86;57464;-62
2022/07/14 08:09:44;;;;;;;9.75;2.65;;;;;;;32.10;34.33;100308.51;2054708;86;29419;-62
2022/07/14 08:12:55;;;;;;;2.95;2.65;;;;;;;32.06;34.64;100314.16;2054508;86;28021;-63
2022/07/14 08:15:59;;;;;;;7.80;3.33;;;;;;;32.20;34.71;100306.66;2054715;86;28658;-62
2022/07/14 08:19:04;;;;;;;;;;;;;;;32.45;34.83;100306.48;2057272;86;31019;-62
2022/07/14 08:22:10;;;;;;;6.22;2.62;;;;;;;32.86;34.78;100300.50;2054509;86;33519;-62
2022/07/14 08:25:17;;;;;;;6.78;2.50;;;;;;;33.39;34.33;100299.79;2056470;86;29343;-62
2022/07/14 08:28:21;;;;;;;6.40;2.98;;;;;;;33.53;33.44;100296.33;2054569;86;27909;-63
2022/07/14 08:31:29;;;;;;;2.98;2.40;;;;;;;33.87;33.49;100301.00;2033497;86;28658;-62
2022/07/14 08:34:38;;;;;;;3.58;2.70;;;;;;;33.93;33.27;100300.11;2054872;86;31025;-63
2022/07/14 08:37:47;;;;;;;3.70;2.47;;;;;;;34.26;33.08;100304.11;2054520;86;34015;-62
2022/07/14 08:40:52;;;;;;;4.60;2.50;;;;;;;34.39;32.83;100299.23;2053891;86;29489;-62
2022/07/14 08:44:00;;;;;;;3.10;2.80;;;;;;;34.57;32.41;100304.48;2054195;86;28015;-62
2022/07/14 08:47:05;;;;;;;4.15;2.90;;;;;;;34.47;32.30;100292.52;2053835;86;28653;-63
2022/07/14 08:50:15;;;;;;;3.98;2.50;;;;;;;34.43;32.50;100294.59;2054003;86;32058;-62
2022/07/14 08:53:20;;;;;;;3.17;2.87;;;;;;;34.32;32.15;100285.94;2053980;86;32998;-63
2022/07/14 08:56:23;;;;;;;6.55;2.90;;;;;;;34.02;31.99;100284.50;2057128;86;29304;-62
2022/07/14 08:59:30;;;;;;;4.10;2.98;;;;;;;33.66;32.02;100291.19;2053500;86;28010;-62
2022/07/14 09:02:33;;;;;;;3.42;2.75;;;;;;;33.37;32.20;100286.67;2056952;86;28652;-62
2022/07/14 09:05:44;;;;;;;3.17;2.83;;;;;;;33.18;32.60;100281.03;2053626;86;31060;-62
2022/07/14 09:08:58;;;;;;;2.87;2.67;;;;;;;33.25;32.54;100276.80;2053756;86;33196;-63
2022/07/14 09:12:10;;;;;;;5.37;2.80;;;;;;;33.06;32.77;100270.87;2030905;86;30290;-63
2022/07/14 09:18:47;;;;;;;4.20;2.92;;;;;;;32.76;32.55;100269.60;2052820;86;29348;-63
2022/07/14 09:22:01;;;;;;;5.15;2.72;;;;;;;32.52;33.10;100266.54;2051280;86;32399;-63
2022/07/14 09:25:10;;;;;;;5.80;3.30;;;;;;;32.49;33.38;100272.53;2053592;86;33678;-62
2022/07/14 09:28:14;;;;;;;4.25;2.27;;;;;;;32.52;33.21;100264.29;2053846;86;29338;-62
2022/07/14 09:31:25;;;;;;;3.58;2.50;;;;;;;32.55;33.93;100258.30;2030439;86;27955;-62
2022/07/14 09:34:36;;;;;;;2.27;1.82;;;;;;;32.73;33.63;100258.95;2053286;86;28655;-62
2022/07/14 09:37:44;;;;;;;3.02;2.72;;;;;;;32.76;33.51;100257.11;2053235;86;31035;-62
2022/07/14 09:40:53;;;;;;;2.98;2.70;;;;;;;32.77;33.68;100261.56;2051841;86;32977;-63
2022/07/14 09:44:14;;;;;;;3.77;2.95;;;;;;;32.79;33.26;100254.42;2051670;86;28103;-62
2022/07/14 09:47:22;;;;;;;5.05;2.52;;;;;;;32.70;33.25;100251.91;2052235;86;27987;-62
2022/07/14 09:50:51;;;;;;;6.35;3.12;;;;;;;32.69;33.49;100248.81;2053319;86;28628;-62
2022/07/14 09:54:03;;;;;;;5.70;2.67;;;;;;;32.64;33.68;100240.86;2053565;86;28052;-62
2022/07/14 09:57:20;;;;;;;4.42;3.35;;;;;;;32.64;33.74;100253.34;2053705;86;29851;-62
2022/07/14 10:00:30;;;;;;;3.12;2.70;;;;;;;32.49;33.54;100246.73;2053841;86;30112;-62
2022/07/14 10:03:37;;;;;;;3.08;2.65;;;;;;;32.46;33.56;100245.23;2053735;86;27898;-62
2022/07/14 10:06:46;;;;;;;2.98;2.72;;;;;;;32.46;33.75;100248.01;2053366;86;29946;-62
2022/07/14 10:10:01;;;;;;;5.10;2.80;;;;;;;32.39;33.67;100247.22;2053153;86;31008;-61
2022/07/14 10:13:07;;;;;;;4.37;3.10;;;;;;;32.39;33.96;100245.28;2052740;86;32957;-62
2022/07/14 10:16:17;;;;;;;8.58;3.10;;;;;;;32.47;33.63;100235.01;2053963;86;29351;-62
2022/07/14 10:19:25;;;;;;;6.83;3.40;;;;;;;32.47;34.08;100236.39;2053999;86;27775;-64
2022/07/14 10:22:34;;;;;;;3.95;3.55;;;;;;;32.52;34.23;100235.17;2054231;86;28706;-65
2022/07/14 10:25:41;;;;;;;3.80;3.50;;;;;;;32.47;33.65;100228.91;2054157;86;31033;-61
2022/07/14 10:28:52;;;;;;;5.17;3.60;;;;;;;32.37;33.90;100226.63;2054130;86;32987;-61
2022/07/14 10:32:26;;;;;;;2.05;1.95;;;;;;;32.32;34.03;100230.63;2054233;86;29342;-62
2022/07/14 10:36:04;;;;;;;3.62;3.30;;;;;;;32.41;34.37;100228.44;2054048;86;28022;-62
2022/07/14 10:39:26;;;;;;;6.53;3.25;;;;;;;32.53;34.45;100228.03;2053668;86;28755;-63
2022/07/14 10:42:43;;;;;;;3.33;2.75;;;;;;;32.78;34.62;100220.81;2054115;86;31115;-63
2022/07/14 10:45:57;;;;;;;6.53;3.12;;;;;;;32.87;34.39;100216.18;2054059;86;33060;-67
2022/07/14 10:49:04;;;;;;;2.65;2.27;;;;;;;32.99;33.73;100217.69;2054302;86;29414;-62
2022/07/14 10:52:17;;;;;;;2.12;1.85;;;;;;;32.95;33.87;100212.79;2054460;86;27748;-62
2022/07/14 10:55:35;;;;;;;5.47;3.83;;;;;;;32.88;34.02;100217.88;2053040;86;27985;-63
2022/07/14 10:58:48;;;;;;;5.40;4.12;;;;;;;32.82;33.70;100215.16;2053882;86;31447;-63
2022/07/14 11:02:16;;;;;;;4.22;3.92;;;;;;;32.70;33.81;100209.45;2053950;86;32238;-63
2022/07/14 11:05:23;;;;;;;4.87;3.33;;;;;;;32.39;33.67;100213.39;2054130;86;29394;-62
2022/07/14 11:08:30;;;;;;;2.58;2.37;;;;;;;32.12;33.93;100204.34;2054495;86;27867;-66
2022/07/14 11:11:35;;;;;;;7.87;3.80;;;;;;;32.04;34.29;100200.45;2054360;86;28621;-62
2022/07/14 11:14:47;;;;;;;5.85;4.17;;;;;;;31.86;34.38;100202.55;2054331;86;31089;-63
2022/07/14 11:17:52;;;;;;;6.58;4.37;;;;;;;31.68;34.53;100194.41;2054332;86;32979;-62
2022/07/14 11:21:18;;;;;;;4.67;4.28;;;;;;;31.39;34.58;100195.22;2054417;86;29335;-61
2022/07/14 11:24:33;;;;;;;5.22;4.25;;;;;;;31.18;34.77;100195.81;2054326;86;27972;-62
2022/07/14 11:27:48;;;;;;;4.83;3.98;;;;;;;30.94;34.96;100197.81;2054218;86;28668;-62
2022/07/14 11:31:13;;;;;;;6.25;4.58;;;;;;;30.70;35.10;100186.31;2054132;86;28442;-63
2022/07/14 11:38:02;;;;;;;7.70;4.55;;;;;;;30.33;35.90;100181.69;1978246;89;29878;-63
2022/07/14 11:41:15;;;;;;;7.75;4.53;;;;;;;30.30;36.24;100184.31;1976619;89;28029;-62
2022/07/14 11:44:43;;;;;;;6.70;3.15;;;;;;;30.45;36.35;100178.07;1979226;89;28795;-61
2022/07/14 11:47:55;;;;;;;6.90;4.80;;;;;;;30.60;36.36;100177.91;1979160;89;32414;-63
2022/07/14 11:51:15;;;;;;;4.90;4.03;;;;;;;30.79;36.18;100167.08;1979211;89;33036;-61
2022/07/14 11:54:22;;;;;;;4.53;4.17;;;;;;;30.83;36.06;100155.04;1890015;93;29413;-61
2022/07/14 11:57:30;;;;;;;7.65;4.17;;;;;;;30.91;36.19;100157.05;1890236;93;28086;-62
2022/07/14 12:00:41;;;;;;;8.20;4.58;;;;;;;30.77;35.69;100156.75;1889938;93;29928;-62
2022/07/14 12:03:52;;;;;;;7.47;4.67;;;;;;;30.56;35.94;100158.66;1888475;93;31205;-62
2022/07/14 12:07:00;;;;;;;8.38;4.03;;;;;;;30.37;35.72;100153.41;1889950;93;33036;-62
2022/07/14 12:10:13;;;;;;;6.75;4.58;;;;;;;30.24;35.96;100139.03;1893090;92;29356;-62
2022/07/14 12:13:22;;;;;;;10.05;4.72;;;;;;;30.16;36.18;100145.61;1926138;92;28064;-62
2022/07/14 12:16:26;;;;;;;6.83;4.80;;;;;;;30.16;36.43;100135.94;1926349;92;28665;-62
2022/07/14 12:19:35;;;;;;;5.53;4.83;;;;;;;30.10;36.52;100141.45;1926419;92;31031;-62
2022/07/14 12:22:52;;;;;;;5.87;4.72;;;;;;;30.25;36.79;100142.66;1926355;92;32995;-62
2022/07/14 12:26:04;;;;;;;5.33;4.75;;;;;;;30.33;36.82;100137.47;1926165;92;29403;-62
2022/07/14 12:29:09;;;;;;;8.60;4.28;;;;;;;30.46;36.78;100127.25;1926154;92;28203;-62
2022/07/14 12:32:15;;;;;;;6.70;4.90;;;;;;;30.70;36.81;100124.09;2047607;86;28774;-62
2022/07/14 12:35:21;;;;;;;8.05;5.30;;;;;;;30.71;36.26;100121.13;2027609;86;30972;-62
2022/07/14 12:38:36;;;;;;;5.20;4.60;;;;;;;30.74;36.45;100124.85;2053633;86;33572;-62
2022/07/14 12:41:46;;;;;;;4.83;3.27;;;;;;;30.76;36.51;100119.96;2030457;86;29291;-61
2022/07/14 12:45:07;;;;;;;6.67;3.87;;;;;;;30.66;36.20;100118.69;2054177;86;27973;-62
2022/07/14 12:48:13;;;;;;;6.00;3.25;;;;;;;30.52;36.47;100110.89;2053531;86;27945;-62
2022/07/14 12:51:44;;;;;;;9.68;4.53;;;;;;;30.38;36.50;100117.80;2054032;86;31038;-62
2022/07/14 12:54:55;;;;;;;4.20;3.80;;;;;;;30.08;36.48;100108.52;2053359;86;29678;-62
2022/07/14 12:58:10;;;;;;;5.17;4.20;;;;;;;29.70;36.60;100119.52;2053883;86;29278;-63
2022/07/14 13:01:24;;;;;;;13.58;4.33;;;;;;;29.47;36.93;100109.36;2053278;86;27978;-64
2022/07/14 13:04:46;;;;;;;2.98;2.77;;;;;;;29.30;36.94;100106.91;2053734;86;29140;-63
2022/07/14 13:07:53;;;;;;;4.00;3.70;;;;;;;29.15;37.14;100107.03;2053904;86;28052;-63
2022/07/14 13:11:02;;;;;;;6.17;3.90;;;;;;;29.09;37.45;100104.56;2054459;86;32967;-62
2022/07/14 13:14:10;;;;;;;7.37;3.67;;;;;;;29.01;37.30;100103.37;2054356;86;29341;-62
2022/07/14 13:17:16;;;;;;;5.62;4.03;;;;;;;28.89;37.73;100089.28;2053977;86;27873;-63
2022/07/14 13:20:51;;;;;;;4.05;2.25;;;;;;;28.89;37.73;100093.93;2054236;86;28648;-62
2022/07/14 13:24:04;;;;;;;6.35;3.60;;;;;;;29.00;37.83;100090.63;2053877;86;31156;-62
2022/07/14 13:27:15;;;;;;;2.58;2.33;;;;;;;29.06;37.59;100083.45;2036362;87;33052;-62
2022/07/14 13:30:23;;;;;;;6.17;3.40;;;;;;;29.05;37.81;100092.77;2036589;87;29406;-62
2022/07/14 13:33:27;;;;;;;3.58;2.20;;;;;;;29.08;37.67;100077.20;2036868;87;27960;-62
2022/07/14 13:36:32;;;;;;;13.20;4.20;;;;;;;29.14;37.49;100075.53;2036848;87;28693;-62
2022/07/14 13:39:37;;;;;;;3.45;3.12;;;;;;;29.25;37.67;100073.56;2037135;87;31071;-62
2022/07/14 13:42:48;;;;;;;5.15;3.22;;;;;;;29.39;37.64;100078.11;2026406;87;33060;-62
2022/07/14 13:46:01;;;;;;;3.37;2.95;;;;;;;29.57;37.75;100072.55;2021649;87;30600;-62
2022/07/14 13:49:12;;;;;;;4.70;3.22;;;;;;;29.77;37.51;100064.86;2022232;87;28053;-62
2022/07/14 13:52:19;;;;;;;4.20;2.87;;;;;;;29.89;37.10;100059.03;2021593;87;29956;-62
2022/07/14 13:55:23;;;;;;;4.35;3.25;;;;;;;29.92;36.70;100064.69;2021839;87;31039;-62
2022/07/14 13:58:33;;;;;;;4.00;2.90;;;;;;;29.98;36.71;100057.83;2022216;87;32990;-62
2022/07/14 14:01:44;;;;;;;9.23;3.37;;;;;;;30.07;36.78;100051.56;2021844;87;30613;-62
2022/07/14 14:04:53;;;;;;;12.10;3.70;;;;;;;30.19;36.56;100035.73;2022222;87;27960;-62
2022/07/14 14:07:57;;;;;;;2.17;2.02;;;;;;;30.25;36.61;100023.84;2021984;87;28764;-62
2022/07/14 14:11:07;;;;;;;3.67;3.20;;;;;;;30.21;36.56;100024.77;2022285;87;31033;-62
2022/07/14 14:14:16;;;;;;;5.00;3.35;;;;;;;30.12;36.25;100019.98;2021938;87;34258;-62
2022/07/14 14:17:27;;;;;;;6.55;2.98;;;;;;;29.95;35.74;100016.80;2022553;87;29400;-61
2022/07/14 14:20:34;;;;;;;3.52;3.08;;;;;;;29.93;35.59;100018.89;2022539;87;27988;-62
2022/07/14 14:23:41;;;;;;;5.53;3.10;;;;;;;29.85;35.50;100017.19;2022697;87;28861;-62
2022/07/14 14:26:48;;;;;;;4.22;2.50;;;;;;;29.79;35.84;100016.63;2022642;87;31082;-62
2022/07/14 14:29:54;;;;;;;2.98;2.27;;;;;;;29.82;35.96;100010.70;2022640;87;32970;-62
2022/07/14 14:32:59;;;;;;;2.83;2.22;;;;;;;29.88;35.97;100004.86;2022662;87;29385;-62
2022/07/14 14:36:04;;;;;;;4.47;2.72;;;;;;;29.91;35.72;99998.08;2022507;87;27442;-62
2022/07/14 14:39:12;;;;;;;2.70;2.42;;;;;;;29.80;35.64;100003.69;2022684;87;29785;-63
2022/07/14 14:42:20;;;;;;;5.53;3.17;;;;;;;29.68;35.47;100008.98;2022444;87;31116;-62
2022/07/14 14:45:31;;;;;;;4.20;2.70;;;;;;;29.60;35.07;100007.27;2023343;87;29371;-62
2022/07/14 14:48:40;;;;;;;2.40;2.20;;;;;;;29.60;35.44;100013.33;2022619;87;29963;-61
2022/07/14 14:51:50;;;;;;;5.50;2.95;;;;;;;29.61;35.44;100008.97;2022376;87;28046;-62
2022/07/14 14:54:56;;;;;;;8.23;3.12;;;;;;;29.63;35.35;100002.71;2022662;87;28694;-63
2022/07/14 14:58:06;;;;;;;2.05;1.87;;;;;;;29.72;35.55;100004.75;2022118;87;31120;-63